Time;durP1;ratioP1;P1;durP2;ratioP2;P2;SDS_P1;SDS_P2;PMS_P1;PMS_P2;Temp;Humidity;BMP_temperature;BMP_pressure;BME280_temperature;BME280_humidity;BME280_pressure;Samples;Min_cycle;Max_cycle;Signal;HPM_P1;HPM_P2
2022/08/12 00:42:57;;;;;;;3.45;1.75;;;15.60;99.90;;;;;;4926942;29;20415;-81
2022/08/12 00:45:24;;;;;;;6.45;1.70;;;15.60;99.90;;;;;;4925706;29;21148;-82
2022/08/12 00:47:53;;;;;;;4.20;1.80;;;15.60;99.90;;;;;;4940231;28;20447;-80
2022/08/12 00:50:21;;;;;;;5.68;1.60;;;15.60;99.90;;;;;;4926774;29;20395;-81
2022/08/12 00:52:51;;;;;;;6.88;2.17;;;15.60;99.90;;;;;;4926806;29;20390;-82
2022/08/12 00:55:20;;;;;;;6.97;1.70;;;15.60;99.90;;;;;;4925888;29;20421;-81
2022/08/12 00:57:49;;;;;;;4.18;2.08;;;15.60;99.90;;;;;;4924791;29;20417;-81
2022/08/12 01:00:22;;;;;;;6.37;1.70;;;15.50;99.90;;;;;;4924643;29;20742;-81
2022/08/12 01:02:54;;;;;;;4.43;1.42;;;15.50;99.90;;;;;;4921403;29;20479;-80
2022/08/12 01:13:48;;;;;;;4.75;1.60;;;15.40;99.90;;;;;;4926227;29;20896;-80
2022/08/12 01:16:21;;;;;;;5.23;1.70;;;15.40;99.90;;;;;;4926334;29;20456;-81
2022/08/12 01:18:52;;;;;;;5.05;1.55;;;15.40;99.90;;;;;;4939367;28;20843;-81
2022/08/12 01:21:26;;;;;;;5.57;1.67;;;15.50;99.90;;;;;;4925217;29;20480;-81
2022/08/12 01:24:21;;;;;;;4.55;1.52;;;15.40;99.90;;;;;;4939093;28;20928;-81
2022/08/12 01:27:02;;;;;;;2.92;1.58;;;15.40;99.90;;;;;;4916145;29;20522;-81
2022/08/12 01:29:41;;;;;;;5.00;1.80;;;15.30;99.90;;;;;;4924140;29;20410;-81
2022/08/12 01:32:13;;;;;;;2.72;1.40;;;15.40;99.90;;;;;;4918282;29;20761;-81
2022/08/12 01:34:56;;;;;;;6.07;1.67;;;15.30;99.90;;;;;;4926090;29;20415;-81
2022/08/12 01:37:25;;;;;;;5.57;1.70;;;15.20;99.90;;;;;;4923765;29;20917;-80
2022/08/12 01:39:56;;;;;;;4.57;1.48;;;15.20;99.90;;;;;;4918965;29;20914;-81
2022/08/12 01:42:49;;;;;;;4.28;1.50;;;15.20;99.90;;;;;;4924023;29;20434;-80
2022/08/12 01:45:23;;;;;;;6.68;1.90;;;15.20;99.90;;;;;;4924055;29;20775;-81
2022/08/12 01:48:21;;;;;;;6.35;1.48;;;15.10;99.90;;;;;;4921195;29;20396;-80
2022/08/12 01:51:03;;;;;;;5.28;1.80;;;15.20;99.90;;;;;;4925124;29;20431;-80
2022/08/12 01:54:04;;;;;;;5.25;1.40;;;15.10;99.90;;;;;;4925734;29;20407;-80
2022/08/12 01:56:44;;;;;;;6.43;1.70;;;15.10;99.90;;;;;;4919003;29;20394;-80
2022/08/12 01:59:46;;;;;;;5.97;1.90;;;15.00;99.90;;;;;;4923521;29;20396;-81
2022/08/12 02:02:33;;;;;;;3.25;1.45;;;15.00;99.90;;;;;;4924811;29;20420;-81
2022/08/12 02:11:34;;;;;;;4.00;1.50;;;14.90;99.90;;;;;;4920927;29;20401;-80
2022/08/12 02:14:23;;;;;;;4.13;1.58;;;14.90;99.90;;;;;;4934761;29;20408;-81
2022/08/12 02:17:04;;;;;;;5.30;1.70;;;14.90;99.90;;;;;;4931023;29;20945;-81
2022/08/12 02:20:00;;;;;;;5.20;1.67;;;14.80;99.90;;;;;;4925262;29;20407;-82
2022/08/12 02:22:43;;;;;;;6.18;1.73;;;14.80;99.90;;;;;;4941870;28;20421;-82
2022/08/12 02:25:23;;;;;;;5.78;2.33;;;14.80;99.90;;;;;;4942031;28;20421;-82
2022/08/12 02:27:54;;;;;;;5.85;1.63;;;14.80;99.90;;;;;;4926745;29;20409;-81
2022/08/12 02:30:30;;;;;;;6.10;1.88;;;14.80;99.90;;;;;;4927368;29;20417;-80
2022/08/12 02:33:10;;;;;;;6.03;1.88;;;14.70;99.90;;;;;;4942040;28;20418;-81
2022/08/12 02:35:38;;;;;;;3.22;1.60;;;14.70;99.90;;;;;;4932843;29;20412;-81
2022/08/12 02:38:09;;;;;;;5.03;2.00;;;14.60;99.90;;;;;;4918336;29;20455;-81
2022/08/12 02:40:39;;;;;;;5.87;1.70;;;14.70;99.90;;;;;;4923505;29;20500;-81
2022/08/12 02:43:47;;;;;;;4.53;1.70;;;14.70;99.90;;;;;;4937978;28;20980;-81
2022/08/12 02:46:19;;;;;;;7.77;1.70;;;14.60;99.90;;;;;;4935696;29;20477;-81
2022/08/12 02:48:51;;;;;;;3.70;1.40;;;14.60;99.90;;;;;;4922079;29;20785;-81
2022/08/12 02:51:23;;;;;;;5.22;1.90;;;14.60;99.90;;;;;;4924945;29;21027;-81
2022/08/12 02:53:51;;;;;;;6.90;1.75;;;14.60;99.90;;;;;;4933524;29;20417;-81
2022/08/12 02:56:36;;;;;;;4.85;1.52;;;14.50;99.90;;;;;;4926535;29;20479;-81
2022/08/12 02:59:05;;;;;;;7.43;1.92;;;14.50;99.90;;;;;;4923019;29;20418;-80
2022/08/12 03:01:34;;;;;;;7.87;1.50;;;14.50;99.90;;;;;;4933175;29;20435;-80
2022/08/12 03:04:15;;;;;;;3.92;1.60;;;14.40;99.90;;;;;;4926951;29;20400;-80
2022/08/12 03:07:25;;;;;;;6.65;1.60;;;14.40;99.90;;;;;;4926590;29;20425;-80
2022/08/12 03:10:13;;;;;;;5.10;1.58;;;14.40;99.90;;;;;;4929840;29;20883;-81
2022/08/12 03:12:46;;;;;;;4.95;1.73;;;14.40;99.90;;;;;;4930829;29;20493;-81
2022/08/12 03:15:22;;;;;;;6.35;1.80;;;14.40;99.90;;;;;;4926654;29;20417;-80
2022/08/12 03:17:54;;;;;;;4.03;1.58;;;14.40;99.90;;;;;;4926440;29;20442;-80
2022/08/12 03:20:42;;;;;;;5.88;1.63;;;14.40;99.90;;;;;;4917839;29;20399;-81
2022/08/12 03:23:12;;;;;;;7.30;1.77;;;14.40;99.90;;;;;;4925518;29;20406;-80
2022/08/12 03:26:00;;;;;;;4.65;1.40;;;14.40;99.90;;;;;;4926251;29;20390;-80
2022/08/12 03:28:49;;;;;;;5.75;1.88;;;14.40;99.90;;;;;;4942812;28;20410;-81
2022/08/12 03:31:31;;;;;;;4.97;1.70;;;14.30;99.90;;;;;;4933496;28;20985;-81
2022/08/12 03:34:01;;;;;;;6.13;1.60;;;14.30;99.90;;;;;;4923963;29;20916;-80
2022/08/12 03:36:34;;;;;;;6.47;1.45;;;14.30;99.90;;;;;;4941916;28;20415;-81
2022/08/12 03:42:14;;;;;;;5.22;1.40;;;14.30;99.90;;;;;;4939325;28;20410;-81
2022/08/12 04:02:14;;;;;;;5.33;1.60;;;14.30;99.90;;;;;;4925479;29;20426;-81
2022/08/12 04:04:46;;;;;;;5.32;1.90;;;14.30;99.90;;;;;;4934562;29;20410;-81
2022/08/12 04:07:16;;;;;;;5.10;1.55;;;14.30;99.90;;;;;;4946005;28;20405;-81
2022/08/12 04:09:45;;;;;;;4.80;1.67;;;14.30;99.90;;;;;;4925229;29;20411;-81
2022/08/12 04:15:07;;;;;;;5.55;1.80;;;14.30;99.90;;;;;;4925412;29;20453;-82
2022/08/12 04:17:39;;;;;;;4.63;1.70;;;14.40;99.90;;;;;;4940052;28;20413;-81
2022/08/12 04:20:26;;;;;;;7.80;1.73;;;14.40;99.90;;;;;;4937482;28;20402;-81
2022/08/12 04:22:55;;;;;;;3.53;1.70;;;14.40;99.90;;;;;;4925114;29;20781;-82
2022/08/12 04:25:25;;;;;;;7.97;1.90;;;14.40;99.90;;;;;;4939949;28;20411;-80
2022/08/12 04:27:53;;;;;;;5.37;1.60;;;14.50;99.90;;;;;;4925264;29;20557;-81
2022/08/12 04:30:22;;;;;;;4.47;1.83;;;14.50;99.90;;;;;;4925723;29;20412;-81
2022/08/12 04:32:59;;;;;;;4.28;1.65;;;14.50;99.90;;;;;;4922993;29;20894;-79
2022/08/12 04:35:28;;;;;;;7.70;2.03;;;14.50;99.90;;;;;;4926978;29;20417;-80
2022/08/12 04:37:57;;;;;;;5.45;1.83;;;14.60;99.90;;;;;;4924540;29;20517;-79
2022/08/12 04:40:35;;;;;;;8.35;2.60;;;14.60;99.90;;;;;;4922061;29;20419;-80
2022/08/12 04:43:03;;;;;;;6.50;2.30;;;14.60;99.90;;;;;;4919214;29;20491;-80
2022/08/12 04:45:33;;;;;;;6.50;2.10;;;14.60;99.90;;;;;;4921886;29;20908;-79
2022/08/12 04:48:01;;;;;;;9.18;2.40;;;14.60;99.90;;;;;;4920687;29;20402;-80
2022/08/12 04:50:29;;;;;;;6.30;2.00;;;14.70;99.90;;;;;;4933718;29;20429;-80
2022/08/12 04:53:07;;;;;;;4.43;1.98;;;14.70;99.90;;;;;;4926417;29;20463;-80
2022/08/12 04:55:40;;;;;;;7.32;2.40;;;14.70;99.90;;;;;;4914429;29;20497;-79
2022/08/12 04:58:09;;;;;;;6.60;2.20;;;14.70;99.90;;;;;;4916598;29;20493;-80
2022/08/12 05:00:37;;;;;;;6.10;2.20;;;14.80;99.90;;;;;;4925151;29;20859;-79
2022/08/12 05:03:06;;;;;;;5.18;1.98;;;14.90;99.90;;;;;;4927252;29;20459;-80
2022/08/12 05:05:35;;;;;;;7.07;2.05;;;14.90;99.90;;;;;;4920525;29;20901;-80
2022/08/12 05:08:05;;;;;;;6.32;2.20;;;15.00;99.90;;;;;;4941272;28;20421;-79
2022/08/12 05:10:33;;;;;;;7.33;2.07;;;14.90;99.90;;;;;;4924481;29;20493;-80
2022/08/12 05:13:10;;;;;;;7.35;2.30;;;14.90;99.90;;;;;;4919720;29;20438;-80
2022/08/12 05:15:38;;;;;;;5.30;2.03;;;15.00;99.90;;;;;;4923606;29;20429;-80
2022/08/12 05:18:26;;;;;;;5.83;2.30;;;15.00;99.90;;;;;;4927709;29;20400;-80
2022/08/12 05:20:57;;;;;;;5.35;1.98;;;15.00;99.90;;;;;;4925061;29;20467;-79
2022/08/12 05:23:26;;;;;;;6.95;2.70;;;15.10;99.90;;;;;;4928043;29;20418;-79
2022/08/12 05:25:55;;;;;;;5.63;2.17;;;15.10;99.90;;;;;;4924099;29;20760;-79
2022/08/12 05:28:25;;;;;;;4.68;2.17;;;15.10;99.90;;;;;;4918749;29;20407;-80
2022/08/12 05:30:54;;;;;;;6.82;2.35;;;15.20;99.90;;;;;;4924176;29;20823;-81
2022/08/12 05:33:30;;;;;;;4.80;2.47;;;15.30;99.90;;;;;;4939736;29;20422;-80
2022/08/12 05:35:58;;;;;;;7.20;2.60;;;15.40;99.90;;;;;;4923642;29;20485;-81
2022/08/12 05:41:20;;;;;;;8.20;2.60;;;15.60;99.90;;;;;;4925686;29;20414;-82
2022/08/12 05:44:08;;;;;;;7.97;3.10;;;15.80;99.90;;;;;;4920960;29;20410;-80
2022/08/12 05:46:36;;;;;;;9.52;2.90;;;16.00;99.90;;;;;;4925959;29;20418;-81
2022/08/12 05:49:05;;;;;;;11.02;3.20;;;16.00;99.90;;;;;;4919247;29;20459;-81
2022/08/12 05:51:34;;;;;;;11.45;3.05;;;16.10;99.90;;;;;;4924001;29;20422;-80
2022/08/12 05:54:09;;;;;;;10.15;2.88;;;16.40;99.90;;;;;;4927027;29;20417;-80
2022/08/12 05:56:39;;;;;;;8.98;2.67;;;16.40;99.90;;;;;;4935906;29;20762;-81
2022/08/12 05:59:09;;;;;;;9.20;2.95;;;16.50;99.90;;;;;;4926756;29;20410;-80
2022/08/12 06:01:39;;;;;;;10.63;3.10;;;16.50;99.90;;;;;;4932529;29;20408;-81
2022/08/12 06:04:26;;;;;;;8.95;2.90;;;16.60;99.90;;;;;;4930315;29;20437;-81
2022/08/12 06:06:54;;;;;;;9.07;3.15;;;16.80;99.90;;;;;;4930006;29;20407;-82
2022/08/12 06:09:21;;;;;;;12.65;4.32;;;16.80;99.90;;;;;;4937660;29;20413;-82
2022/08/12 06:11:50;;;;;;;11.40;5.13;;;17.00;99.90;;;;;;4931714;29;20502;-82
2022/08/12 06:14:35;;;;;;;14.93;6.63;;;17.10;99.90;;;;;;4938365;28;20416;-80
2022/08/12 06:17:07;;;;;;;13.67;7.57;;;17.30;99.90;;;;;;4945863;28;20425;-81
2022/08/12 06:19:35;;;;;;;16.05;8.30;;;17.50;99.90;;;;;;4929896;29;20399;-81
2022/08/12 06:22:25;;;;;;;16.90;10.27;;;17.40;99.90;;;;;;4945155;28;20983;-81
2022/08/12 06:24:53;;;;;;;14.60;8.38;;;17.60;99.90;;;;;;4930102;29;20502;-81
2022/08/12 06:27:20;;;;;;;15.20;8.20;;;17.70;99.90;;;;;;4930045;29;20813;-82
2022/08/12 06:29:48;;;;;;;19.20;9.52;;;17.70;99.90;;;;;;4927504;29;20407;-81
2022/08/12 06:32:36;;;;;;;19.65;12.02;;;17.90;99.90;;;;;;4927799;29;20407;-80
2022/08/12 06:35:19;;;;;;;24.20;16.02;;;18.00;99.90;;;;;;4942331;28;20417;-80
2022/08/12 06:37:57;;;;;;;17.23;11.23;;;18.30;99.90;;;;;;4942762;28;20406;-81
2022/08/12 06:43:12;;;;;;;18.30;10.73;;;18.30;99.90;;;;;;4922973;29;20416;-81
2022/08/12 06:45:48;;;;;;;16.60;10.07;;;18.50;99.90;;;;;;4931995;29;20450;-81
2022/08/12 06:48:16;;;;;;;10.13;6.13;;;18.60;99.90;;;;;;4931368;29;20418;-81
2022/08/12 06:50:44;;;;;;;14.15;7.88;;;18.70;99.90;;;;;;4929928;29;20412;-77
2022/08/12 06:53:12;;;;;;;14.60;7.97;;;18.90;99.90;;;;;;4945210;29;20455;-80
2022/08/12 06:55:40;;;;;;;12.48;6.00;;;18.90;99.90;;;;;;4925277;29;20415;-81
2022/08/12 06:58:25;;;;;;;12.20;6.15;;;18.80;99.90;;;;;;4941984;28;20484;-81
2022/08/12 07:00:54;;;;;;;13.57;6.15;;;18.90;99.90;;;;;;4929247;29;20398;-80
2022/08/12 07:03:27;;;;;;;9.32;3.25;;;19.10;99.90;;;;;;4925198;29;20407;-81
2022/08/12 07:05:57;;;;;;;8.70;4.03;;;19.20;99.90;;;;;;4931592;29;20939;-81
2022/08/12 07:08:31;;;;;;;8.18;3.70;;;19.30;99.90;;;;;;4919963;29;20404;-81
2022/08/12 07:11:04;;;;;;;8.15;3.60;;;19.20;99.90;;;;;;4928569;29;20444;-82
2022/08/12 07:13:37;;;;;;;9.83;3.47;;;19.10;99.90;;;;;;4928654;29;20409;-82
2022/08/12 07:16:27;;;;;;;8.20;2.97;;;19.20;99.90;;;;;;4943266;28;20414;-83
2022/08/12 07:18:55;;;;;;;8.02;3.10;;;19.20;99.90;;;;;;4923167;29;20420;-83
2022/08/12 07:21:25;;;;;;;10.55;3.63;;;19.30;99.90;;;;;;4925888;29;20408;-81
2022/08/12 07:24:13;;;;;;;9.00;3.95;;;19.30;99.90;;;;;;4928449;29;20496;-82
2022/08/12 07:26:40;;;;;;;10.77;3.90;;;19.60;99.90;;;;;;4927328;29;20417;-81
2022/08/12 07:29:10;;;;;;;11.65;3.75;;;19.70;99.90;;;;;;4925705;29;20417;-82
2022/08/12 07:31:38;;;;;;;9.10;3.73;;;19.50;99.90;;;;;;4941030;28;20406;-82
2022/08/12 07:34:06;;;;;;;9.90;3.60;;;19.70;99.90;;;;;;4918115;29;20785;-82
2022/08/12 07:36:34;;;;;;;9.68;3.80;;;19.60;99.90;;;;;;4934243;29;20419;-82
2022/08/12 07:39:03;;;;;;;8.85;3.42;;;19.80;99.90;;;;;;4940482;28;20488;-82
2022/08/12 07:41:31;;;;;;;9.37;3.67;;;19.80;99.90;;;;;;4934731;28;20425;-82
2022/08/12 07:44:03;;;;;;;7.53;2.77;;;19.80;99.90;;;;;;4935370;29;20424;-83
2022/08/12 07:46:39;;;;;;;10.55;3.97;;;19.80;99.90;;;;;;4939815;28;20506;-82
2022/08/12 07:49:13;;;;;;;11.57;3.50;;;19.90;99.90;;;;;;4924633;29;20428;-83
2022/08/12 07:51:42;;;;;;;8.50;3.00;;;19.90;99.90;;;;;;4926826;29;20470;-82
2022/08/12 07:54:11;;;;;;;13.00;3.90;;;20.00;99.90;;;;;;4930940;29;20407;-83
2022/08/12 07:56:41;;;;;;;8.65;4.35;;;20.10;99.90;;;;;;4925357;29;20492;-82
2022/08/12 07:59:10;;;;;;;13.55;5.38;;;20.30;99.90;;;;;;4934498;29;20437;-83
2022/08/12 08:01:38;;;;;;;10.65;2.72;;;20.20;99.90;;;;;;4925820;29;20407;-83
2022/08/12 08:06:53;;;;;;;10.35;3.17;;;20.50;99.90;;;;;;4925549;29;20755;-83
2022/08/12 08:09:22;;;;;;;11.18;3.67;;;20.50;99.90;;;;;;4940593;28;20456;-83
2022/08/12 08:14:46;;;;;;;9.20;2.00;;;20.50;99.90;;;;;;4937531;28;20777;-83
2022/08/12 08:17:16;;;;;;;8.50;2.13;;;20.70;99.90;;;;;;4941536;28;20454;-82
2022/08/12 08:19:44;;;;;;;8.40;2.38;;;20.70;99.90;;;;;;4940636;29;20917;-81
2022/08/12 08:22:31;;;;;;;7.68;1.92;;;20.60;99.90;;;;;;4926997;29;20412;-83
2022/08/12 08:25:12;;;;;;;5.95;1.92;;;20.50;99.90;;;;;;4918638;29;20459;-84
2022/08/12 08:28:03;;;;;;;6.72;1.85;;;20.60;99.90;;;;;;4930357;29;20694;-82
2022/08/12 08:30:32;;;;;;;5.00;1.70;;;20.90;99.90;;;;;;4924398;29;20782;-82
2022/08/12 08:33:00;;;;;;;7.40;1.80;;;20.90;99.90;;;;;;4918963;29;20446;-82
2022/08/12 08:35:28;;;;;;;6.32;1.90;;;20.70;99.90;;;;;;4924461;29;20898;-83
2022/08/12 08:38:17;;;;;;;6.45;1.65;;;20.70;99.90;;;;;;4934922;28;20400;-83
2022/08/12 08:44:10;;;;;;;8.18;1.77;;;20.80;99.90;;;;;;4924883;29;20386;-83
2022/08/12 08:46:39;;;;;;;8.57;1.60;;;20.90;99.90;;;;;;4945939;28;20405;-82
2022/08/12 08:49:07;;;;;;;4.05;1.90;;;20.90;99.90;;;;;;4926073;29;20502;-82
2022/08/12 08:51:35;;;;;;;4.65;1.70;;;21.00;99.90;;;;;;4924050;29;20418;-82
2022/08/12 08:54:02;;;;;;;6.63;1.80;;;21.40;99.90;;;;;;4939528;29;20408;-83
2022/08/12 08:56:30;;;;;;;7.65;2.13;;;21.30;99.90;;;;;;4930234;29;20459;-82
2022/08/12 08:58:58;;;;;;;8.37;1.97;;;21.30;99.90;;;;;;4934180;28;20447;-83
2022/08/12 09:01:26;;;;;;;6.65;1.60;;;21.40;99.90;;;;;;4912876;29;20505;-82
2022/08/12 09:04:07;;;;;;;7.55;1.77;;;21.20;99.90;;;;;;4931373;28;20889;-82
2022/08/12 09:06:59;;;;;;;5.53;1.50;;;21.30;99.90;;;;;;4938107;28;20502;-82
2022/08/12 09:09:44;;;;;;;9.57;1.60;;;21.40;99.90;;;;;;4921204;29;20419;-80
2022/08/12 09:15:23;;;;;;;6.82;1.30;;;21.60;99.90;;;;;;4925177;29;20439;-82
2022/08/12 09:18:05;;;;;;;5.75;1.45;;;21.70;99.90;;;;;;4924605;29;20412;-82
2022/08/12 09:20:37;;;;;;;9.25;1.85;;;21.70;99.90;;;;;;4921497;29;20902;-82
2022/08/12 09:23:08;;;;;;;7.05;1.60;;;21.70;99.90;;;;;;4925071;29;20407;-83
2022/08/12 09:25:56;;;;;;;5.22;1.60;;;21.70;99.90;;;;;;4935261;29;20413;-82
2022/08/12 09:28:30;;;;;;;4.20;1.60;;;21.60;99.90;;;;;;4923417;29;20418;-83
2022/08/12 09:30:59;;;;;;;4.97;1.60;;;21.80;99.90;;;;;;4932621;29;20806;-82
2022/08/12 09:33:32;;;;;;;11.80;2.17;;;21.70;99.90;;;;;;4923699;29;20482;-82
2022/08/12 09:36:20;;;;;;;7.88;1.98;;;21.80;99.90;;;;;;4923660;29;20504;-81
2022/08/12 09:39:01;;;;;;;5.68;1.48;;;21.90;99.90;;;;;;4924009;29;20401;-82
2022/08/12 09:45:19;;;;;;;6.72;1.70;;;21.70;99.90;;;;;;4943002;28;20969;-83
2022/08/12 09:47:51;;;;;;;6.30;1.85;;;21.80;99.90;;;;;;4936384;28;20547;-81
2022/08/12 09:50:26;;;;;;;6.85;1.70;;;22.10;99.90;;;;;;4939646;28;20413;-81
2022/08/12 09:53:24;;;;;;;5.20;1.50;;;21.90;99.90;;;;;;4926055;29;20414;-82
2022/08/12 09:56:10;;;;;;;5.72;1.60;;;22.00;99.90;;;;;;4922593;29;20511;-83
2022/08/12 09:58:58;;;;;;;5.88;1.70;;;22.10;99.90;;;;;;4940830;28;20417;-83
2022/08/12 10:01:28;;;;;;;5.60;1.50;;;22.20;99.90;;;;;;4928261;29;20420;-83
2022/08/12 10:04:16;;;;;;;4.72;1.50;;;22.30;99.90;;;;;;4938313;28;20468;-84
2022/08/12 10:06:47;;;;;;;6.53;1.58;;;22.30;99.90;;;;;;4925472;29;20419;-83
2022/08/12 10:09:22;;;;;;;5.85;1.50;;;22.40;99.90;;;;;;4937971;29;20395;-84
2022/08/12 10:15:02;;;;;;;8.68;1.83;;;22.70;99.90;;;;;;4923670;29;20427;-84
2022/08/12 10:17:29;;;;;;;6.47;1.50;;;22.70;99.90;;;;;;4930605;29;20448;-83
2022/08/12 10:19:57;;;;;;;5.75;1.80;;;22.60;99.90;;;;;;4937585;28;20411;-83
2022/08/12 10:22:29;;;;;;;8.80;2.00;;;22.60;99.90;;;;;;4917462;29;20774;-83
2022/08/12 10:31:05;;;;;;;6.95;1.98;;;23.00;99.90;;;;;;4923045;29;20416;-83
2022/08/12 10:33:43;;;;;;;7.40;1.70;;;23.00;99.90;;;;;;4935002;28;20523;-83
2022/08/12 10:36:37;;;;;;;9.70;1.77;;;23.00;99.90;;;;;;4936956;28;20418;-83
2022/08/12 10:39:11;;;;;;;6.18;1.70;;;23.00;99.90;;;;;;4941395;28;20420;-83
2022/08/12 10:45:15;;;;;;;6.47;1.73;;;23.00;99.90;;;;;;4924899;29;20407;-84
2022/08/12 10:47:48;;;;;;;6.70;1.80;;;23.00;99.90;;;;;;4928882;29;20474;-83
2022/08/12 10:50:36;;;;;;;6.47;1.75;;;23.10;99.90;;;;;;4932109;28;20407;-83
2022/08/12 10:53:26;;;;;;;7.90;1.63;;;23.10;99.90;;;;;;4941269;29;20463;-83
2022/08/12 10:56:16;;;;;;;3.85;1.52;;;23.40;99.90;;;;;;4928924;29;20927;-83
2022/08/12 10:58:44;;;;;;;6.30;1.65;;;23.50;99.90;;;;;;4943436;28;20425;-83
2022/08/12 11:01:15;;;;;;;6.63;1.60;;;23.40;99.90;;;;;;4943256;28;20701;-83
2022/08/12 11:04:04;;;;;;;9.98;1.75;;;23.50;99.90;;;;;;4940971;29;20496;-82
2022/08/12 11:06:52;;;;;;;3.20;1.50;;;23.40;99.90;;;;;;4932600;29;20975;-83
2022/08/12 11:09:41;;;;;;;6.43;1.67;;;23.40;99.90;;;;;;4924630;29;20767;-83
2022/08/12 11:12:31;;;;;;;6.85;1.83;;;23.50;99.90;;;;;;4940626;28;20860;-83
2022/08/12 11:15:22;;;;;;;5.47;1.83;;;23.90;99.90;;;;;;4927237;29;20401;-83
2022/08/12 11:18:10;;;;;;;6.78;1.90;;;23.90;99.90;;;;;;4940648;28;20496;-82
2022/08/12 11:20:46;;;;;;;7.43;1.92;;;23.80;99.90;;;;;;4919269;29;20865;-84
2022/08/12 11:23:16;;;;;;;4.72;1.63;;;24.00;99.90;;;;;;4924665;29;20413;-82
2022/08/12 11:26:05;;;;;;;8.97;2.03;;;24.00;99.90;;;;;;4922372;29;20418;-83
2022/08/12 11:28:35;;;;;;;8.63;2.22;;;24.10;99.90;;;;;;4920078;29;20410;-82
2022/08/12 11:31:06;;;;;;;7.75;2.03;;;24.10;99.90;;;;;;4941710;28;20415;-82
2022/08/12 11:33:42;;;;;;;6.90;1.95;;;24.10;99.90;;;;;;4934728;29;20978;-83
2022/08/12 11:36:30;;;;;;;7.77;2.10;;;24.10;99.90;;;;;;4933456;29;20422;-82
2022/08/12 11:38:57;;;;;;;6.15;1.88;;;24.10;99.90;;;;;;4917901;29;20881;-82
2022/08/12 11:41:34;;;;;;;7.32;2.05;;;24.10;99.90;;;;;;4926369;29;20434;-82
2022/08/12 11:44:02;;;;;;;7.82;2.00;;;24.10;99.90;;;;;;4923739;29;20904;-82
2022/08/12 11:46:53;;;;;;;5.47;1.85;;;24.40;99.90;;;;;;4930571;29;20507;-82
2022/08/12 11:49:26;;;;;;;4.87;1.60;;;24.40;99.90;;;;;;4927902;29;20424;-82
2022/08/12 11:52:01;;;;;;;8.13;2.10;;;24.60;99.90;;;;;;4926966;29;20600;-82
2022/08/12 11:54:30;;;;;;;4.80;1.73;;;24.60;99.90;;;;;;4936528;28;20531;-83
2022/08/12 11:57:00;;;;;;;5.47;1.77;;;24.60;99.90;;;;;;4940821;28;20437;-83
2022/08/12 11:59:31;;;;;;;6.10;1.90;;;24.50;99.90;;;;;;4925250;29;20418;-83
2022/08/12 12:02:19;;;;;;;4.53;1.70;;;24.50;99.90;;;;;;4929525;29;20405;-82
2022/08/12 12:04:49;;;;;;;7.07;2.00;;;24.70;99.90;;;;;;4925910;29;20408;-82
2022/08/12 12:07:21;;;;;;;7.07;2.10;;;24.80;99.90;;;;;;4927354;29;20461;-83
2022/08/12 12:10:14;;;;;;;5.67;2.03;;;24.90;99.90;;;;;;4942500;28;20407;-82
2022/08/12 12:12:42;;;;;;;19.05;3.00;;;24.70;99.90;;;;;;4933249;29;20417;-83
2022/08/12 12:15:17;;;;;;;8.48;1.85;;;24.80;99.90;;;;;;4946296;28;20429;-83
2022/08/12 12:18:03;;;;;;;6.33;2.00;;;24.80;99.90;;;;;;4931910;29;20416;-83
2022/08/12 12:20:30;;;;;;;10.00;2.07;;;24.90;99.90;;;;;;4926419;29;20907;-82
2022/08/12 12:22:58;;;;;;;5.75;2.13;;;25.10;99.90;;;;;;4941892;29;20427;-83
2022/08/12 12:25:26;;;;;;;6.53;2.15;;;25.10;99.90;;;;;;4939012;28;20418;-83
2022/08/12 12:28:15;;;;;;;7.43;1.80;;;25.20;99.90;;;;;;4934984;28;20432;-82
2022/08/12 12:31:03;;;;;;;3.35;1.80;;;25.30;99.90;;;;;;4918788;29;20810;-83
2022/08/12 12:33:41;;;;;;;3.13;1.67;;;25.20;99.90;;;;;;4936279;28;20413;-83
2022/08/12 12:36:25;;;;;;;3.83;1.90;;;25.30;99.90;;;;;;4935434;28;20444;-83
2022/08/12 12:38:57;;;;;;;6.93;2.13;;;25.50;99.90;;;;;;4933349;29;20400;-84
2022/08/12 12:41:27;;;;;;;8.50;1.90;;;25.30;99.90;;;;;;4925822;29;20404;-82
2022/08/12 12:44:15;;;;;;;6.35;1.83;;;25.30;99.90;;;;;;4924304;29;20860;-82
2022/08/12 12:46:56;;;;;;;6.20;1.75;;;25.50;99.90;;;;;;4919217;29;20434;-83
2022/08/12 12:49:23;;;;;;;7.13;1.90;;;25.80;99.90;;;;;;4922889;29;20433;-83
2022/08/12 12:51:53;;;;;;;7.60;1.90;;;25.80;99.90;;;;;;4922424;29;20413;-83
2022/08/12 12:54:51;;;;;;;6.10;1.77;;;25.70;99.90;;;;;;4932566;28;20415;-83
2022/08/12 12:57:19;;;;;;;5.78;1.92;;;25.80;99.90;;;;;;4936073;29;20411;-83
2022/08/12 13:00:15;;;;;;;3.90;1.80;;;25.80;99.90;;;;;;4926581;29;20907;-83
2022/08/12 13:02:51;;;;;;;7.57;1.95;;;25.80;99.90;;;;;;4930941;29;20423;-84
2022/08/12 13:05:33;;;;;;;8.10;2.60;;;25.80;99.90;;;;;;4938989;28;20440;-83
2022/08/12 13:08:26;;;;;;;5.13;1.80;;;26.10;99.90;;;;;;4929343;29;20423;-83
2022/08/12 13:11:04;;;;;;;6.38;2.00;;;26.00;99.90;;;;;;4940072;28;20720;-83
2022/08/12 13:13:33;;;;;;;5.25;2.10;;;26.10;99.90;;;;;;4932496;29;20413;-83
2022/08/12 13:16:21;;;;;;;4.80;1.90;;;26.10;99.90;;;;;;4941175;28;20900;-83
2022/08/12 13:18:51;;;;;;;7.80;2.05;;;26.20;99.90;;;;;;4932550;29;20413;-83
2022/08/12 13:21:19;;;;;;;4.90;1.97;;;26.20;99.90;;;;;;4924758;29;20414;-83
2022/08/12 13:24:03;;;;;;;7.07;1.85;;;26.30;99.90;;;;;;4925367;29;20413;-83
2022/08/12 13:26:38;;;;;;;5.25;1.90;;;26.50;99.90;;;;;;4938594;28;20425;-82
2022/08/12 13:29:07;;;;;;;7.43;2.30;;;26.60;99.90;;;;;;4923216;29;20764;-83
2022/08/12 13:31:40;;;;;;;7.28;2.20;;;26.50;99.90;;;;;;4932386;29;20416;-83
2022/08/12 13:34:28;;;;;;;5.47;2.07;;;26.40;99.90;;;;;;4921840;29;20407;-83
2022/08/12 13:37:05;;;;;;;4.15;1.98;;;26.40;99.90;;;;;;4929837;29;20442;-83
2022/08/12 13:39:37;;;;;;;7.18;2.10;;;26.60;99.90;;;;;;4928112;29;20442;-83
2022/08/12 13:42:08;;;;;;;9.23;2.27;;;26.60;99.90;;;;;;4924188;29;20486;-84
2022/08/12 13:44:40;;;;;;;7.32;2.20;;;26.70;99.90;;;;;;4925977;29;20412;-82
2022/08/12 13:47:07;;;;;;;14.82;2.63;;;26.70;99.90;;;;;;4915667;29;20882;-82
2022/08/12 13:49:48;;;;;;;8.45;2.20;;;26.50;99.90;;;;;;4924442;29;20386;-84
2022/08/12 13:52:23;;;;;;;5.78;2.15;;;26.70;99.90;;;;;;4942205;28;20956;-81
2022/08/12 13:54:51;;;;;;;5.53;2.10;;;26.60;99.90;;;;;;4923781;29;20821;-83
2022/08/12 13:57:25;;;;;;;7.18;2.30;;;26.50;99.90;;;;;;4922906;29;20458;-81
2022/08/12 13:59:53;;;;;;;6.38;2.20;;;26.60;99.90;;;;;;4928126;29;20784;-83
2022/08/12 14:02:27;;;;;;;6.72;2.00;;;26.70;99.90;;;;;;4927606;29;20498;-82
2022/08/12 14:04:54;;;;;;;12.70;2.22;;;26.60;99.90;;;;;;4922917;29;20412;-82
2022/08/12 14:07:24;;;;;;;6.68;2.28;;;26.60;99.90;;;;;;4923725;29;20411;-82
2022/08/12 14:12:45;;;;;;;7.43;2.00;;;26.60;99.90;;;;;;4918571;29;20406;-81
2022/08/12 14:15:22;;;;;;;7.05;2.10;;;26.80;99.90;;;;;;4926014;29;20456;-83
2022/08/12 14:18:14;;;;;;;5.53;1.97;;;26.80;99.90;;;;;;4931735;29;20467;-83
2022/08/12 14:20:46;;;;;;;10.40;2.30;;;26.80;99.90;;;;;;4927476;29;20414;-81
2022/08/12 14:23:17;;;;;;;7.30;2.20;;;26.80;99.90;;;;;;4926738;29;20426;-82
2022/08/12 14:26:07;;;;;;;8.15;2.25;;;26.80;99.90;;;;;;4927446;29;20405;-82
2022/08/12 14:28:39;;;;;;;5.32;2.33;;;26.90;99.90;;;;;;4926184;29;20542;-84
2022/08/12 14:31:23;;;;;;;6.32;2.38;;;27.00;99.90;;;;;;4950136;29;20396;-83
2022/08/12 14:33:58;;;;;;;13.38;2.72;;;26.90;99.90;;;;;;4935951;29;20396;-83
2022/08/12 14:36:26;;;;;;;6.63;2.10;;;26.90;99.90;;;;;;4930514;29;20522;-83
2022/08/12 14:38:54;;;;;;;5.82;2.20;;;27.00;99.90;;;;;;4925722;29;20441;-83
2022/08/12 14:41:25;;;;;;;5.80;2.05;;;27.00;99.90;;;;;;4927735;29;20407;-83
2022/08/12 14:44:13;;;;;;;8.70;2.40;;;27.00;99.90;;;;;;4941948;29;20494;-83
2022/08/12 14:47:01;;;;;;;4.97;1.92;;;26.90;99.90;;;;;;4943049;29;20501;-83
2022/08/12 14:49:35;;;;;;;5.93;2.25;;;26.90;99.90;;;;;;4944673;29;20394;-82
2022/08/12 14:52:23;;;;;;;7.65;1.85;;;26.80;99.90;;;;;;4940757;29;20474;-83
2022/08/12 14:55:13;;;;;;;6.25;2.20;;;26.90;99.90;;;;;;4929018;29;20464;-83
2022/08/12 14:58:01;;;;;;;6.93;2.10;;;26.90;99.90;;;;;;4929493;29;20413;-82
2022/08/12 15:03:26;;;;;;;7.07;1.97;;;26.60;99.90;;;;;;4943119;29;20407;-83
2022/08/12 15:06:15;;;;;;;4.90;2.00;;;26.40;99.90;;;;;;4940552;29;20411;-82
2022/08/12 15:09:05;;;;;;;5.45;1.95;;;26.40;99.90;;;;;;4939547;29;20962;-84
2022/08/12 15:11:36;;;;;;;8.73;2.20;;;26.50;99.90;;;;;;4940041;29;20408;-83
2022/08/12 15:14:25;;;;;;;12.37;2.20;;;26.50;99.90;;;;;;4937455;29;20832;-84
2022/08/12 15:16:58;;;;;;;5.70;2.10;;;26.60;99.90;;;;;;4942449;29;20398;-83
2022/08/12 15:19:28;;;;;;;3.83;1.80;;;26.60;99.90;;;;;;4944370;29;21084;-83
2022/08/12 15:22:19;;;;;;;6.55;2.17;;;26.60;99.90;;;;;;4944114;29;20934;-83
2022/08/12 15:25:08;;;;;;;7.18;2.10;;;26.50;99.90;;;;;;4944050;29;20483;-83
2022/08/12 15:27:51;;;;;;;6.00;2.10;;;26.30;99.90;;;;;;4955942;28;20526;-82
2022/08/12 15:30:34;;;;;;;7.85;2.28;;;26.20;99.90;;;;;;4955167;28;20441;-83